Time;durP1;ratioP1;P1;durP2;ratioP2;P2;SDS_P1;SDS_P2;PMS_P1;PMS_P2;Temp;Humidity;BMP_temperature;BMP_pressure;BME280_temperature;BME280_humidity;BME280_pressure;Samples;Min_cycle;Max_cycle;Signal;HPM_P1;HPM_P2
2020/12/07 00:01:46;;;;;;;3.53;0.80;;;10.90;99.90;;;;;;5096081;28;20293;-86
2020/12/07 00:04:16;;;;;;;5.13;0.90;;;10.80;99.90;;;;;;5109921;28;20267;-85
2020/12/07 00:06:47;;;;;;;3.73;0.77;;;10.80;99.90;;;;;;5103795;28;20291;-86
2020/12/07 00:09:17;;;;;;;2.50;0.60;;;10.70;99.90;;;;;;5092760;28;20200;-85
2020/12/07 00:11:49;;;;;;;3.40;0.93;;;10.60;99.90;;;;;;5090812;28;20256;-85
2020/12/07 00:14:21;;;;;;;3.83;0.80;;;10.50;99.90;;;;;;5094859;28;20223;-85
2020/12/07 00:16:52;;;;;;;5.97;1.00;;;10.50;99.90;;;;;;5094506;28;20330;-85
2020/12/07 00:19:23;;;;;;;4.60;0.90;;;10.40;99.90;;;;;;5091502;28;20225;-84
2020/12/07 00:21:53;;;;;;;3.93;0.90;;;10.40;99.90;;;;;;5094903;28;20214;-82
2020/12/07 00:24:24;;;;;;;3.50;0.90;;;10.30;99.90;;;;;;5094040;28;20690;-83
2020/12/07 00:26:55;;;;;;;2.20;0.90;;;10.30;99.90;;;;;;5087442;28;20227;-83
2020/12/07 00:29:28;;;;;;;3.27;0.83;;;10.20;99.90;;;;;;5088589;28;20285;-84
2020/12/07 00:32:00;;;;;;;5.10;1.10;;;10.20;99.90;;;;;;5091749;28;20293;-85
2020/12/07 00:34:33;;;;;;;2.50;0.87;;;10.10;99.90;;;;;;5099647;28;20198;-84
2020/12/07 00:37:04;;;;;;;2.37;0.80;;;10.10;99.90;;;;;;5093109;28;20197;-85
2020/12/07 00:39:34;;;;;;;2.07;0.77;;;10.00;99.90;;;;;;5093576;28;20275;-83
2020/12/07 00:42:08;;;;;;;2.73;0.80;;;10.00;99.90;;;;;;5089769;28;20207;-85
2020/12/07 00:44:42;;;;;;;2.10;0.80;;;10.00;99.90;;;;;;5091079;28;20199;-84
2020/12/07 00:47:13;;;;;;;6.00;1.07;;;9.90;99.90;;;;;;5094311;28;20231;-85
2020/12/07 00:49:44;;;;;;;3.60;1.17;;;9.90;99.90;;;;;;5094021;28;20210;-84
2020/12/07 00:52:15;;;;;;;4.57;0.90;;;9.80;99.90;;;;;;5106976;28;20199;-84
2020/12/07 00:54:46;;;;;;;4.40;0.97;;;9.70;99.90;;;;;;5095925;28;20225;-83
2020/12/07 00:57:16;;;;;;;2.67;1.37;;;9.70;99.90;;;;;;5095947;28;20229;-84
2020/12/07 00:59:50;;;;;;;3.17;1.33;;;9.70;99.90;;;;;;5095477;28;20210;-84
2020/12/07 01:02:21;;;;;;;3.20;1.07;;;9.60;99.90;;;;;;5093192;28;20229;-85
2020/12/07 01:04:52;;;;;;;3.30;1.30;;;9.60;99.90;;;;;;5098574;28;20236;-84
2020/12/07 01:07:23;;;;;;;6.10;1.50;;;9.60;99.90;;;;;;5096486;28;20727;-83
2020/12/07 01:09:53;;;;;;;6.57;1.47;;;9.50;99.90;;;;;;5099235;28;20672;-85
2020/12/07 01:12:24;;;;;;;2.20;1.60;;;9.60;99.90;;;;;;5095548;28;20222;-84
2020/12/07 01:15:00;;;;;;;4.73;1.50;;;9.50;99.90;;;;;;5113062;28;20476;-84
2020/12/07 01:17:31;;;;;;;3.97;2.10;;;9.50;99.90;;;;;;5108827;28;20198;-83
2020/12/07 01:20:02;;;;;;;6.73;2.17;;;9.40;99.90;;;;;;5113431;28;20291;-86
2020/12/07 01:22:36;;;;;;;3.87;1.80;;;9.40;99.90;;;;;;5096289;28;20206;-81
2020/12/07 01:25:05;;;;;;;5.63;2.30;;;9.50;99.90;;;;;;5095893;28;20219;-83
2020/12/07 01:27:36;;;;;;;5.20;1.73;;;9.50;99.90;;;;;;5086998;28;20242;-83
2020/12/07 01:30:08;;;;;;;5.03;1.30;;;9.60;99.90;;;;;;5091573;28;20256;-84
2020/12/07 01:32:39;;;;;;;3.63;1.50;;;9.70;99.90;;;;;;5089489;28;20203;-85
2020/12/07 01:35:10;;;;;;;3.47;1.60;;;9.70;99.90;;;;;;5093462;28;20334;-84
2020/12/07 01:37:40;;;;;;;3.70;1.60;;;9.70;99.90;;;;;;5089913;28;20730;-85
2020/12/07 01:40:11;;;;;;;2.00;1.67;;;9.60;99.90;;;;;;5088885;28;20241;-84
2020/12/07 01:42:42;;;;;;;2.50;1.57;;;9.50;99.90;;;;;;5084274;28;20202;-85
2020/12/07 01:45:14;;;;;;;2.70;1.70;;;9.40;99.90;;;;;;5090237;28;20245;-86
2020/12/07 01:47:51;;;;;;;2.43;1.33;;;9.30;99.90;;;;;;5092162;28;20261;-85
2020/12/07 01:50:22;;;;;;;3.77;1.70;;;9.20;99.90;;;;;;5086677;28;20230;-89
2020/12/07 01:52:53;;;;;;;5.17;1.83;;;9.20;99.90;;;;;;5088858;28;20751;-86
2020/12/07 01:55:24;;;;;;;3.73;1.93;;;9.20;99.90;;;;;;5089503;28;20251;-84
2020/12/07 01:57:54;;;;;;;4.07;1.70;;;9.20;99.90;;;;;;5087466;28;20585;-83
2020/12/07 02:00:25;;;;;;;4.83;1.77;;;9.20;99.90;;;;;;5089500;28;20211;-84
2020/12/07 02:02:55;;;;;;;5.30;3.00;;;9.30;99.90;;;;;;5088492;28;20680;-83
2020/12/07 02:05:27;;;;;;;3.47;2.07;;;9.30;99.90;;;;;;5085196;28;20598;-83
2020/12/07 02:08:13;;;;;;;11.70;6.00;;;9.30;99.90;;;;;;5091190;28;20233;-85
2020/12/07 02:10:44;;;;;;;12.43;7.03;;;9.20;99.90;;;;;;5090166;28;20259;-84
2020/12/07 02:13:14;;;;;;;10.73;5.93;;;9.20;99.90;;;;;;5089489;28;20199;-82
2020/12/07 02:15:45;;;;;;;6.43;2.80;;;9.30;99.90;;;;;;5090044;28;20259;-81
2020/12/07 02:18:15;;;;;;;4.00;2.03;;;9.30;99.90;;;;;;5092411;28;20210;-82
2020/12/07 02:20:49;;;;;;;7.07;2.00;;;9.40;99.90;;;;;;5091541;28;20295;-83
2020/12/07 02:23:19;;;;;;;3.27;1.90;;;9.50;99.90;;;;;;5089023;28;20301;-83
2020/12/07 02:25:49;;;;;;;4.57;2.10;;;9.50;99.90;;;;;;5094310;28;20221;-82
2020/12/07 02:28:20;;;;;;;4.13;1.50;;;9.50;99.90;;;;;;5089856;28;20288;-83
2020/12/07 02:30:51;;;;;;;5.73;1.47;;;9.50;99.90;;;;;;5091096;28;20211;-81
2020/12/07 02:33:21;;;;;;;4.67;1.40;;;9.60;99.90;;;;;;5089763;28;20296;-82
2020/12/07 02:35:53;;;;;;;3.40;1.40;;;9.60;99.90;;;;;;5093205;28;20710;-82
2020/12/07 02:38:23;;;;;;;4.07;1.47;;;9.70;99.90;;;;;;5092944;28;20292;-81
2020/12/07 02:40:54;;;;;;;3.47;1.40;;;9.70;99.90;;;;;;5085514;28;20218;-82
2020/12/07 02:43:25;;;;;;;2.23;1.00;;;9.70;99.90;;;;;;5092090;28;20295;-82
2020/12/07 02:45:55;;;;;;;2.43;0.90;;;9.70;99.90;;;;;;5092830;28;20246;-84
2020/12/07 02:48:26;;;;;;;1.87;1.03;;;9.70;99.90;;;;;;5084546;28;20321;-81
2020/12/07 02:50:58;;;;;;;3.03;1.07;;;9.70;99.90;;;;;;5089081;28;20652;-83
2020/12/07 02:53:29;;;;;;;3.23;1.23;;;9.60;99.90;;;;;;5088502;28;20235;-81
2020/12/07 02:56:00;;;;;;;2.93;1.10;;;9.60;99.90;;;;;;5091145;28;20203;-82
2020/12/07 02:58:32;;;;;;;2.57;1.10;;;9.60;99.90;;;;;;5091471;28;20259;-81
2020/12/07 03:01:02;;;;;;;2.93;1.20;;;9.70;99.90;;;;;;5093729;28;20328;-81
2020/12/07 03:03:36;;;;;;;3.67;1.43;;;9.60;99.90;;;;;;5086905;28;20223;-82
2020/12/07 03:06:07;;;;;;;2.67;1.47;;;9.60;99.90;;;;;;5087164;28;20241;-82
2020/12/07 03:08:36;;;;;;;4.10;1.90;;;9.60;99.90;;;;;;5082968;28;20334;-82
2020/12/07 03:11:07;;;;;;;2.53;1.40;;;9.60;99.90;;;;;;5083404;28;20303;-82
2020/12/07 03:13:36;;;;;;;3.70;1.80;;;9.60;99.90;;;;;;5084898;28;20238;-81
2020/12/07 03:16:06;;;;;;;4.27;1.87;;;9.60;99.90;;;;;;5091433;28;20252;-81
2020/12/07 03:18:35;;;;;;;2.57;1.30;;;9.60;99.90;;;;;;5084873;28;20302;-82
2020/12/07 03:21:08;;;;;;;4.60;1.40;;;9.60;99.90;;;;;;5087503;28;20203;-81
2020/12/07 03:23:38;;;;;;;5.43;1.90;;;9.50;99.90;;;;;;5085932;28;20203;-81
2020/12/07 03:26:08;;;;;;;4.70;1.53;;;9.50;99.90;;;;;;5089108;28;20637;-82
2020/12/07 03:28:37;;;;;;;4.37;1.77;;;9.50;99.90;;;;;;5088264;28;20230;-82
2020/12/07 03:31:07;;;;;;;4.20;1.30;;;9.50;99.90;;;;;;5090105;28;20272;-81
2020/12/07 03:33:38;;;;;;;3.60;1.40;;;9.40;99.90;;;;;;5087332;28;21791;-82
2020/12/07 03:36:09;;;;;;;3.93;1.77;;;9.40;99.90;;;;;;5089691;28;20237;-83
2020/12/07 03:38:38;;;;;;;4.53;1.57;;;9.30;99.90;;;;;;5091351;28;20359;-81
2020/12/07 03:41:08;;;;;;;3.80;1.63;;;9.30;99.90;;;;;;5092275;28;20684;-81
2020/12/07 03:46:29;;;;;;;4.17;1.53;;;9.30;99.90;;;;;;5094488;28;20703;-82
2020/12/07 03:48:59;;;;;;;3.03;1.50;;;9.30;99.90;;;;;;5094985;28;20210;-83
2020/12/07 03:51:30;;;;;;;3.53;1.50;;;9.20;99.90;;;;;;5091378;28;20218;-83
2020/12/07 03:54:18;;;;;;;4.20;1.40;;;9.30;99.90;;;;;;5094768;28;20213;-83
2020/12/07 03:57:16;;;;;;;4.53;1.57;;;9.20;99.90;;;;;;5096914;28;20206;-86
2020/12/07 03:59:46;;;;;;;3.53;1.60;;;9.10;99.90;;;;;;5086320;28;20289;-83
2020/12/07 04:02:16;;;;;;;2.13;1.37;;;9.10;99.90;;;;;;5092997;28;20236;-83
2020/12/07 04:04:59;;;;;;;7.20;1.90;;;9.00;99.90;;;;;;5093597;28;20718;-82
2020/12/07 04:07:30;;;;;;;5.40;2.00;;;8.90;99.90;;;;;;5096369;28;20654;-83
2020/12/07 04:10:01;;;;;;;3.97;2.03;;;8.80;99.90;;;;;;5096946;28;20217;-83
2020/12/07 04:12:30;;;;;;;6.13;2.00;;;8.80;99.90;;;;;;5092328;28;20199;-81
2020/12/07 04:15:00;;;;;;;4.43;1.53;;;8.80;99.90;;;;;;5090739;28;20211;-83
2020/12/07 04:17:30;;;;;;;6.80;2.03;;;8.60;99.90;;;;;;5093166;28;20221;-83
2020/12/07 04:20:06;;;;;;;4.33;1.90;;;8.50;99.90;;;;;;5093612;28;20309;-85
2020/12/07 04:22:37;;;;;;;5.13;2.17;;;8.40;99.90;;;;;;5095122;28;20267;-83
2020/12/07 04:25:07;;;;;;;5.23;2.13;;;8.30;99.90;;;;;;5093840;28;20672;-83
2020/12/07 04:27:37;;;;;;;4.83;2.40;;;8.30;99.90;;;;;;5094004;28;20229;-82
2020/12/07 04:30:07;;;;;;;4.23;1.93;;;8.20;99.90;;;;;;5090688;28;20639;-82
2020/12/07 04:32:40;;;;;;;3.07;2.00;;;8.20;99.90;;;;;;5078137;28;20216;-84
2020/12/07 04:35:10;;;;;;;3.43;2.20;;;8.30;99.90;;;;;;5102766;28;20238;-82
2020/12/07 04:37:44;;;;;;;4.73;1.87;;;8.20;99.90;;;;;;5092605;28;20841;-81
2020/12/07 04:40:15;;;;;;;6.77;2.30;;;8.10;99.90;;;;;;5093790;28;20203;-82
2020/12/07 04:42:47;;;;;;;2.70;1.90;;;8.20;99.90;;;;;;5093969;28;20239;-83
2020/12/07 04:45:17;;;;;;;2.73;1.40;;;8.20;99.90;;;;;;5090987;28;20236;-83
2020/12/07 04:48:01;;;;;;;5.00;2.80;;;8.20;99.90;;;;;;5093454;28;20625;-83
2020/12/07 04:50:32;;;;;;;4.03;1.90;;;8.10;99.90;;;;;;5091383;28;20199;-81
2020/12/07 04:53:05;;;;;;;3.57;1.87;;;8.10;99.90;;;;;;5090311;28;20231;-82
2020/12/07 04:55:38;;;;;;;4.27;2.07;;;8.00;99.90;;;;;;5090820;28;20293;-83
2020/12/07 04:58:09;;;;;;;5.23;1.90;;;8.00;99.90;;;;;;5083208;28;20337;-82
2020/12/07 05:00:43;;;;;;;4.90;2.20;;;8.00;99.90;;;;;;5092795;28;20241;-82
2020/12/07 05:03:16;;;;;;;4.27;1.83;;;8.00;99.90;;;;;;5091758;28;20570;-83
2020/12/07 05:05:50;;;;;;;4.57;2.23;;;8.00;99.90;;;;;;5092905;28;20719;-83
2020/12/07 05:08:25;;;;;;;6.40;1.90;;;8.00;99.90;;;;;;5093239;28;20233;-81
2020/12/07 05:11:02;;;;;;;4.20;1.57;;;7.90;99.90;;;;;;5092914;28;20200;-81
2020/12/07 05:13:40;;;;;;;5.60;1.80;;;7.80;99.90;;;;;;5092475;28;20288;-82
2020/12/07 05:16:12;;;;;;;3.93;2.30;;;7.80;99.90;;;;;;5092700;28;20282;-81
2020/12/07 05:18:43;;;;;;;4.20;1.93;;;7.70;99.90;;;;;;5083533;28;20210;-82
2020/12/07 05:21:16;;;;;;;2.97;1.80;;;7.70;99.90;;;;;;5090150;28;20647;-81
2020/12/07 05:23:53;;;;;;;2.17;1.60;;;7.60;99.90;;;;;;5093197;28;20244;-83
2020/12/07 05:26:24;;;;;;;3.17;1.30;;;7.60;99.90;;;;;;5089879;28;20219;-82
2020/12/07 05:29:04;;;;;;;3.70;1.50;;;7.60;99.90;;;;;;5089182;28;20647;-81
2020/12/07 05:31:36;;;;;;;2.97;1.20;;;7.60;99.90;;;;;;5094008;28;20223;-81
2020/12/07 05:34:07;;;;;;;3.63;1.37;;;7.60;99.90;;;;;;5101712;28;20299;-82
2020/12/07 05:36:41;;;;;;;5.93;2.00;;;7.60;99.90;;;;;;5095004;28;20199;-81
2020/12/07 05:39:14;;;;;;;4.07;2.10;;;7.50;99.90;;;;;;5091728;28;20202;-82
2020/12/07 05:41:45;;;;;;;2.30;1.50;;;7.50;99.90;;;;;;5089289;28;20212;-81
2020/12/07 05:44:17;;;;;;;2.97;1.70;;;7.50;99.90;;;;;;5092689;28;20287;-82
2020/12/07 05:46:47;;;;;;;3.00;1.43;;;7.50;99.90;;;;;;5091335;28;20778;-81
2020/12/07 05:49:19;;;;;;;2.27;1.50;;;7.40;99.90;;;;;;5093529;28;20281;-81
2020/12/07 05:52:00;;;;;;;3.73;2.07;;;7.40;99.90;;;;;;5091459;28;20283;-82
2020/12/07 05:54:32;;;;;;;4.03;1.63;;;7.30;99.90;;;;;;5093269;28;20654;-82
2020/12/07 05:57:10;;;;;;;3.57;1.80;;;7.30;99.90;;;;;;5091897;28;20289;-82
2020/12/07 05:59:42;;;;;;;5.77;1.97;;;7.30;99.90;;;;;;5091024;28;20207;-81
2020/12/07 06:02:12;;;;;;;3.47;1.67;;;7.20;99.90;;;;;;5090891;28;20304;-82
2020/12/07 06:04:42;;;;;;;5.53;2.10;;;7.20;99.90;;;;;;5091459;28;20596;-82
2020/12/07 06:07:14;;;;;;;3.37;1.90;;;7.20;99.90;;;;;;5092619;28;20227;-82
2020/12/07 06:09:46;;;;;;;5.07;1.87;;;7.10;99.90;;;;;;5092409;28;20651;-82
2020/12/07 06:12:20;;;;;;;2.97;1.90;;;7.20;99.90;;;;;;5091861;28;20221;-82
2020/12/07 06:14:51;;;;;;;4.17;1.93;;;7.10;99.90;;;;;;5090028;28;20295;-81
2020/12/07 06:17:25;;;;;;;3.70;1.87;;;7.10;99.90;;;;;;5092316;28;20249;-82
2020/12/07 06:19:55;;;;;;;4.83;1.70;;;7.10;99.90;;;;;;5091766;28;20200;-81
2020/12/07 06:22:25;;;;;;;5.20;1.90;;;7.10;99.90;;;;;;5091587;28;20203;-82
2020/12/07 06:25:00;;;;;;;2.73;1.57;;;7.00;99.90;;;;;;5092258;28;20252;-82
2020/12/07 06:27:32;;;;;;;4.77;1.73;;;7.00;99.90;;;;;;5072931;28;20235;-83
2020/12/07 06:30:04;;;;;;;5.27;1.97;;;7.00;99.90;;;;;;5086527;28;20201;-82
2020/12/07 06:32:52;;;;;;;6.27;2.53;;;7.00;99.90;;;;;;5077601;28;20199;-82
2020/12/07 06:35:22;;;;;;;5.40;2.50;;;7.00;99.90;;;;;;5086306;28;20638;-82
2020/12/07 06:37:52;;;;;;;5.83;1.97;;;7.00;99.90;;;;;;5092875;28;20201;-82
2020/12/07 06:40:25;;;;;;;3.37;2.10;;;7.00;99.90;;;;;;5091763;28;20209;-82
2020/12/07 06:42:55;;;;;;;3.50;1.80;;;7.00;99.90;;;;;;5091507;28;20213;-82
2020/12/07 06:45:31;;;;;;;4.27;2.03;;;7.00;99.90;;;;;;5092524;28;20302;-82
2020/12/07 06:48:08;;;;;;;3.67;1.63;;;7.00;99.90;;;;;;5092212;28;20233;-81
2020/12/07 06:50:39;;;;;;;2.23;1.63;;;7.00;99.90;;;;;;5093761;28;20237;-81
2020/12/07 06:53:23;;;;;;;2.80;1.63;;;7.00;99.90;;;;;;5093524;28;20242;-82
2020/12/07 06:55:55;;;;;;;4.53;1.67;;;6.90;99.90;;;;;;5096160;28;20236;-82
2020/12/07 06:58:32;;;;;;;2.40;1.60;;;6.90;99.90;;;;;;5098972;28;20217;-81
2020/12/07 07:01:12;;;;;;;2.47;1.50;;;6.90;99.90;;;;;;5112876;28;20186;-81
2020/12/07 07:03:49;;;;;;;2.20;1.70;;;6.90;99.90;;;;;;5112583;28;20225;-83
2020/12/07 07:06:23;;;;;;;1.83;1.20;;;6.80;99.90;;;;;;5109632;28;20253;-82
2020/12/07 07:08:59;;;;;;;1.83;1.20;;;6.80;99.90;;;;;;5095625;28;20645;-82
2020/12/07 07:11:30;;;;;;;1.30;1.20;;;6.80;99.90;;;;;;5093899;28;20557;-82
2020/12/07 07:14:00;;;;;;;3.70;1.37;;;6.80;99.90;;;;;;5094502;28;20314;-82
2020/12/07 07:16:33;;;;;;;2.10;1.20;;;6.80;99.90;;;;;;5095813;28;20206;-82
2020/12/07 07:19:05;;;;;;;2.07;1.43;;;6.70;99.90;;;;;;5095359;28;20230;-81
2020/12/07 07:21:53;;;;;;;1.40;1.10;;;6.70;99.90;;;;;;5093581;28;20234;-80
2020/12/07 07:24:26;;;;;;;2.07;1.30;;;6.70;99.90;;;;;;5094836;28;20205;-81
2020/12/07 07:27:06;;;;;;;3.50;1.30;;;6.70;99.90;;;;;;5093962;28;20250;-83
2020/12/07 07:29:35;;;;;;;1.90;1.30;;;6.70;99.90;;;;;;5093577;28;20709;-81
2020/12/07 07:32:05;;;;;;;1.47;1.30;;;6.70;99.90;;;;;;5091553;28;20636;-81
2020/12/07 07:34:35;;;;;;;1.73;1.17;;;6.60;99.90;;;;;;5093499;28;20230;-82
2020/12/07 07:37:06;;;;;;;1.83;1.37;;;6.60;99.90;;;;;;5095308;28;20235;-82
2020/12/07 07:39:36;;;;;;;2.63;1.97;;;6.50;99.90;;;;;;5095376;28;20230;-82
2020/12/07 07:42:13;;;;;;;3.37;2.40;;;6.50;99.90;;;;;;5082536;28;20273;-83
2020/12/07 07:44:44;;;;;;;3.17;2.87;;;6.50;99.90;;;;;;5075105;28;20273;-83
2020/12/07 07:47:19;;;;;;;3.30;2.80;;;6.40;99.90;;;;;;5094686;28;20738;-83
2020/12/07 07:50:07;;;;;;;3.10;2.00;;;6.40;99.90;;;;;;5095006;28;20233;-83
2020/12/07 08:15:45;;;;;;;2.10;1.70;;;6.10;99.90;;;;;;5089504;28;20226;-81
2020/12/07 08:18:18;;;;;;;1.97;1.60;;;6.00;99.90;;;;;;5092493;28;20207;-82
2020/12/07 08:20:53;;;;;;;1.97;1.57;;;6.00;99.90;;;;;;5094655;28;20322;-81
2020/12/07 08:23:28;;;;;;;2.47;1.40;;;6.00;99.90;;;;;;5094329;28;20220;-82
2020/12/07 08:25:59;;;;;;;1.40;1.20;;;6.00;99.90;;;;;;5091983;28;20211;-82
2020/12/07 08:28:31;;;;;;;1.10;1.00;;;6.00;99.90;;;;;;5094385;28;20405;-82
2020/12/07 08:31:12;;;;;;;1.47;1.10;;;6.00;99.90;;;;;;5093741;28;20298;-82
2020/12/07 08:33:53;;;;;;;1.87;1.40;;;6.10;99.90;;;;;;5093170;28;20195;-83
2020/12/07 08:36:28;;;;;;;3.87;0.90;;;6.20;99.90;;;;;;5091658;28;20234;-83
2020/12/07 08:39:01;;;;;;;1.40;1.07;;;6.30;99.90;;;;;;5094518;28;20203;-82
2020/12/07 08:41:32;;;;;;;1.90;1.20;;;6.30;99.90;;;;;;5093423;28;20681;-82
2020/12/07 08:44:04;;;;;;;1.60;1.10;;;6.40;99.90;;;;;;5093476;28;20221;-83
2020/12/07 08:46:36;;;;;;;1.87;1.33;;;6.50;99.90;;;;;;5083485;28;20214;-82
2020/12/07 08:49:08;;;;;;;2.87;1.20;;;6.50;99.90;;;;;;5092435;28;20706;-83
2020/12/07 08:51:38;;;;;;;2.37;0.87;;;6.50;99.90;;;;;;5092045;28;20199;-81
2020/12/07 08:54:08;;;;;;;5.33;1.33;;;6.60;99.90;;;;;;5092675;28;20261;-83
2020/12/07 08:56:38;;;;;;;2.43;1.10;;;6.60;99.90;;;;;;5094061;28;20281;-83
2020/12/07 08:59:07;;;;;;;1.03;0.93;;;6.60;99.90;;;;;;5095293;28;20229;-82
2020/12/07 09:01:39;;;;;;;1.83;1.27;;;6.70;99.90;;;;;;5094310;28;20274;-84
2020/12/07 09:04:10;;;;;;;3.47;1.30;;;6.60;99.90;;;;;;5096144;28;20711;-82
2020/12/07 09:06:40;;;;;;;2.03;1.20;;;6.70;99.90;;;;;;5095789;28;20199;-82
2020/12/07 09:09:10;;;;;;;2.43;1.10;;;6.70;99.90;;;;;;5095749;28;20596;-81
2020/12/07 09:11:39;;;;;;;1.83;1.20;;;6.70;99.90;;;;;;5094337;28;20211;-82
2020/12/07 09:14:10;;;;;;;2.13;1.00;;;6.70;99.90;;;;;;5095498;28;20324;-81
2020/12/07 09:16:41;;;;;;;1.43;1.00;;;6.70;99.90;;;;;;5093478;28;20670;-82
2020/12/07 09:19:11;;;;;;;1.50;1.00;;;6.80;99.90;;;;;;5094718;28;20599;-82
2020/12/07 09:21:41;;;;;;;2.03;1.13;;;6.80;99.90;;;;;;5093789;28;20286;-81
2020/12/07 09:24:11;;;;;;;1.77;1.13;;;6.80;99.90;;;;;;5095941;28;20195;-81
2020/12/07 09:26:41;;;;;;;2.20;0.83;;;7.00;99.90;;;;;;5095413;28;20727;-81
2020/12/07 09:29:11;;;;;;;2.03;1.10;;;7.00;99.90;;;;;;5094667;28;20762;-81
2020/12/07 09:31:42;;;;;;;1.63;0.93;;;7.00;99.90;;;;;;5093391;28;20225;-82
2020/12/07 09:34:12;;;;;;;2.20;1.07;;;7.00;99.90;;;;;;5081792;28;20238;-82
2020/12/07 09:36:41;;;;;;;1.70;0.80;;;7.10;99.90;;;;;;5095010;28;20207;-82
2020/12/07 09:39:11;;;;;;;1.53;1.00;;;7.00;99.90;;;;;;5094466;28;20206;-82
2020/12/07 09:41:41;;;;;;;1.43;0.93;;;7.00;99.90;;;;;;5091879;28;20242;-82
2020/12/07 09:44:10;;;;;;;1.93;1.03;;;7.00;99.90;;;;;;5092601;28;20215;-82
2020/12/07 09:46:41;;;;;;;1.80;0.80;;;7.00;99.90;;;;;;5092238;28;20228;-82
2020/12/07 09:49:10;;;;;;;2.13;1.03;;;7.10;99.90;;;;;;5093924;28;20226;-84
2020/12/07 09:51:40;;;;;;;1.40;1.03;;;7.10;99.90;;;;;;5092098;28;20208;-83
2020/12/07 09:54:09;;;;;;;1.50;1.00;;;7.10;99.90;;;;;;5092380;28;20290;-82
2020/12/07 09:56:39;;;;;;;1.70;1.03;;;7.10;99.90;;;;;;5091347;28;20313;-82
2020/12/07 09:59:08;;;;;;;1.30;1.10;;;7.10;99.90;;;;;;5091829;28;20191;-83
2020/12/07 10:01:38;;;;;;;1.40;1.20;;;7.10;99.90;;;;;;5091907;28;20222;-82
2020/12/07 10:04:09;;;;;;;1.97;1.20;;;7.10;99.90;;;;;;5092343;28;20249;-83
2020/12/07 10:06:39;;;;;;;1.47;1.00;;;7.10;99.90;;;;;;5092411;28;20206;-82
2020/12/07 10:09:08;;;;;;;1.13;0.97;;;7.10;99.90;;;;;;5093356;28;20233;-82
2020/12/07 10:11:38;;;;;;;1.63;0.93;;;7.10;99.90;;;;;;5088407;28;20200;-83
2020/12/07 10:14:08;;;;;;;3.17;1.10;;;7.10;99.90;;;;;;5080177;28;20296;-82
2020/12/07 10:16:42;;;;;;;1.20;1.10;;;7.10;99.90;;;;;;5090355;28;20212;-83
2020/12/07 10:19:14;;;;;;;1.37;1.20;;;7.10;99.90;;;;;;5093507;28;20608;-82
2020/12/07 10:21:43;;;;;;;1.73;1.20;;;7.20;99.90;;;;;;5090829;28;20206;-83
2020/12/07 10:24:13;;;;;;;2.80;1.03;;;7.20;99.90;;;;;;5092243;28;20243;-82
2020/12/07 10:26:43;;;;;;;1.30;1.10;;;7.20;99.90;;;;;;5092733;28;20648;-82
2020/12/07 10:29:12;;;;;;;5.13;1.33;;;7.20;99.90;;;;;;5096229;28;20288;-82
2020/12/07 10:31:45;;;;;;;3.13;1.40;;;7.20;99.90;;;;;;5091243;28;20651;-82
2020/12/07 10:34:16;;;;;;;3.90;1.40;;;7.20;99.90;;;;;;5091611;28;20199;-82
2020/12/07 10:36:47;;;;;;;3.03;1.40;;;7.20;99.90;;;;;;5090610;28;20242;-83
2020/12/07 10:39:16;;;;;;;2.20;1.40;;;7.30;99.90;;;;;;5091162;28;20230;-82
2020/12/07 10:41:46;;;;;;;4.30;1.70;;;7.20;99.90;;;;;;5091103;28;20572;-82
2020/12/07 10:44:16;;;;;;;1.60;1.20;;;7.20;99.90;;;;;;5091121;28;20240;-83
2020/12/07 10:46:49;;;;;;;2.93;1.30;;;7.20;99.90;;;;;;5090927;28;20277;-83
2020/12/07 10:49:21;;;;;;;1.90;1.20;;;7.20;99.90;;;;;;5089855;28;20292;-84
2020/12/07 10:51:52;;;;;;;1.80;1.40;;;7.20;99.90;;;;;;5090697;28;20230;-83
2020/12/07 10:54:22;;;;;;;3.17;1.57;;;7.20;99.90;;;;;;5092888;28;20213;-83
2020/12/07 10:56:53;;;;;;;2.77;1.20;;;7.20;99.90;;;;;;5092021;28;20208;-83
2020/12/07 10:59:24;;;;;;;1.40;0.97;;;7.20;99.90;;;;;;5092430;28;20605;-81
2020/12/07 11:01:56;;;;;;;2.40;1.20;;;7.10;99.90;;;;;;5091475;28;20202;-80
2020/12/07 11:04:28;;;;;;;2.70;1.40;;;7.10;99.90;;;;;;5092016;28;20195;-82
2020/12/07 11:07:01;;;;;;;1.30;1.20;;;7.20;99.90;;;;;;5095119;28;20199;-81
2020/12/07 11:09:32;;;;;;;1.40;0.93;;;7.20;99.90;;;;;;5098386;28;20296;-80
2020/12/07 11:12:05;;;;;;;2.20;1.30;;;7.10;99.90;;;;;;5104226;28;20203;-81
2020/12/07 11:14:36;;;;;;;1.37;1.23;;;7.20;99.90;;;;;;5095305;28;20280;-82
2020/12/07 11:17:08;;;;;;;1.23;1.00;;;7.20;99.90;;;;;;5099892;28;20611;-82
2020/12/07 11:19:42;;;;;;;1.30;0.87;;;7.20;99.90;;;;;;5106656;28;20246;-82
2020/12/07 11:22:13;;;;;;;1.30;1.20;;;7.30;99.90;;;;;;5108018;28;20231;-82
2020/12/07 11:24:44;;;;;;;1.20;1.10;;;7.30;99.90;;;;;;5107747;28;20197;-82
2020/12/07 11:27:14;;;;;;;1.20;1.07;;;7.20;99.90;;;;;;5108662;28;20222;-83
2020/12/07 11:29:45;;;;;;;1.73;1.10;;;7.20;99.90;;;;;;5103876;28;20254;-82
2020/12/07 11:32:15;;;;;;;1.27;0.97;;;7.20;99.90;;;;;;5102217;28;20217;-82
2020/12/07 11:34:47;;;;;;;2.50;1.13;;;7.20;99.90;;;;;;5107911;28;20252;-82
2020/12/07 11:37:18;;;;;;;2.00;1.30;;;7.20;99.90;;;;;;5107880;28;20272;-82
2020/12/07 11:39:55;;;;;;;4.83;1.20;;;7.20;99.90;;;;;;5115294;28;20205;-83
2020/12/07 11:42:36;;;;;;;2.20;1.30;;;7.20;99.90;;;;;;5101504;28;20634;-82
2020/12/07 11:45:07;;;;;;;1.40;1.30;;;7.10;99.90;;;;;;5088307;28;20340;-83
2020/12/07 11:47:37;;;;;;;1.37;1.27;;;7.00;99.90;;;;;;5092949;28;20254;-82
2020/12/07 11:50:10;;;;;;;1.30;1.20;;;7.00;99.90;;;;;;5091856;28;20284;-82
2020/12/07 11:52:40;;;;;;;2.43;1.40;;;7.00;99.90;;;;;;5089927;28;20286;-83
2020/12/07 11:55:11;;;;;;;2.40;1.20;;;7.00;99.90;;;;;;5091845;28;20231;-82
2020/12/07 11:57:45;;;;;;;2.37;1.70;;;7.00;99.90;;;;;;5091287;28;20239;-83
2020/12/07 12:00:14;;;;;;;2.30;1.53;;;7.00;99.90;;;;;;5100431;28;20256;-82
2020/12/07 12:02:44;;;;;;;2.77;1.30;;;7.10;99.90;;;;;;5095023;28;20312;-83
2020/12/07 12:05:16;;;;;;;3.37;1.30;;;7.20;99.90;;;;;;5082211;28;20210;-83
2020/12/07 12:07:47;;;;;;;1.60;1.20;;;7.20;99.90;;;;;;5096088;28;20297;-82
2020/12/07 12:10:17;;;;;;;1.77;1.40;;;7.10;99.90;;;;;;5093351;28;20229;-82
2020/12/07 12:12:48;;;;;;;2.00;1.37;;;7.10;99.90;;;;;;5092647;28;21406;-83
2020/12/07 12:15:19;;;;;;;2.73;1.53;;;7.10;99.90;;;;;;5093993;28;20217;-82
2020/12/07 12:17:49;;;;;;;2.40;1.50;;;7.10;99.90;;;;;;5094733;28;20557;-82
2020/12/07 12:20:21;;;;;;;2.83;1.40;;;7.10;99.90;;;;;;5094653;28;20211;-83
2020/12/07 12:22:52;;;;;;;2.07;1.40;;;7.10;99.90;;;;;;5093679;28;20300;-82
2020/12/07 12:25:24;;;;;;;2.47;1.20;;;7.10;99.90;;;;;;5084614;28;20210;-82
2020/12/07 12:27:55;;;;;;;2.93;1.10;;;7.10;99.90;;;;;;5094958;28;20203;-82
2020/12/07 12:30:26;;;;;;;1.70;1.00;;;7.10;99.90;;;;;;5094187;28;20269;-83
2020/12/07 12:32:57;;;;;;;2.30;1.10;;;7.10;99.90;;;;;;5093357;28;20201;-82
2020/12/07 12:35:29;;;;;;;2.00;1.27;;;7.20;99.90;;;;;;5093075;28;20226;-82
2020/12/07 12:38:02;;;;;;;1.10;0.90;;;7.20;99.90;;;;;;5099085;28;20478;-82
2020/12/07 12:40:32;;;;;;;1.00;0.87;;;7.20;99.90;;;;;;5094421;28;20569;-82
2020/12/07 12:43:03;;;;;;;1.80;1.00;;;7.30;99.90;;;;;;5093598;28;20276;-82
2020/12/07 12:45:34;;;;;;;1.10;0.90;;;7.30;99.90;;;;;;5096286;28;20207;-83
2020/12/07 12:48:03;;;;;;;1.30;1.20;;;7.30;99.90;;;;;;5095767;28;20280;-84
2020/12/07 12:50:35;;;;;;;1.33;1.03;;;7.30;99.90;;;;;;5098908;28;20250;-83
2020/12/07 12:53:06;;;;;;;3.00;1.10;;;7.40;99.90;;;;;;5085866;28;20331;-83
2020/12/07 12:55:35;;;;;;;3.23;0.77;;;7.40;99.90;;;;;;5114562;28;20221;-83
2020/12/07 12:58:05;;;;;;;1.93;0.97;;;7.50;99.90;;;;;;5113044;28;20209;-83
2020/12/07 13:00:35;;;;;;;1.73;1.27;;;7.50;99.90;;;;;;5111066;28;20206;-83
2020/12/07 13:03:04;;;;;;;5.43;1.50;;;7.50;99.90;;;;;;5100568;28;20240;-83
2020/12/07 13:05:35;;;;;;;3.20;1.67;;;7.50;99.90;;;;;;5097460;28;20678;-83
2020/12/07 13:08:05;;;;;;;3.87;1.40;;;7.40;99.90;;;;;;5095884;28;20297;-83
2020/12/07 13:10:35;;;;;;;3.97;1.43;;;7.40;99.90;;;;;;5094356;28;20328;-83
2020/12/07 13:13:05;;;;;;;2.23;1.47;;;7.40;99.90;;;;;;5093280;28;20220;-83
2020/12/07 13:15:39;;;;;;;2.47;1.97;;;7.40;99.90;;;;;;5093163;28;20218;-83
2020/12/07 13:18:10;;;;;;;2.30;1.40;;;7.40;99.90;;;;;;5083572;28;20214;-83
2020/12/07 13:20:45;;;;;;;3.40;1.60;;;7.40;99.90;;;;;;5091359;28;20256;-83
2020/12/07 13:23:21;;;;;;;1.90;1.50;;;7.40;99.90;;;;;;5092155;28;20676;-82
2020/12/07 13:25:58;;;;;;;1.37;1.10;;;7.40;99.90;;;;;;5094204;28;20507;-82
2020/12/07 13:28:28;;;;;;;2.13;1.50;;;7.40;99.90;;;;;;5091415;28;20237;-81
2020/12/07 13:30:58;;;;;;;1.80;1.30;;;7.40;99.90;;;;;;5092945;28;20213;-82
2020/12/07 13:33:27;;;;;;;1.90;1.40;;;7.40;99.90;;;;;;5092346;28;21053;-83
2020/12/07 13:36:04;;;;;;;2.10;1.57;;;7.40;99.90;;;;;;5090504;28;20245;-82
2020/12/07 13:38:36;;;;;;;1.83;1.57;;;7.40;99.90;;;;;;5093384;28;20242;-82
2020/12/07 13:41:06;;;;;;;1.70;1.33;;;7.40;99.90;;;;;;5092310;28;20256;-83
2020/12/07 13:43:36;;;;;;;2.80;1.30;;;7.40;99.90;;;;;;5100135;28;20246;-83
2020/12/07 13:46:06;;;;;;;1.70;1.40;;;7.40;99.90;;;;;;5090356;28;20248;-83